Time;durP1;ratioP1;P1;durP2;ratioP2;P2;SDS_P1;SDS_P2;PMS_P1;PMS_P2;Temp;Humidity;BMP_temperature;BMP_pressure;BME280_temperature;BME280_humidity;BME280_pressure;Samples;Min_cycle;Max_cycle;Signal;HPM_P1;HPM_P2
2022/03/21 00:00:00;;;;;;;49.2;43.3;;;;;;;2.8;100.0;102680;;;;
2022/03/21 00:01:04;;;;;;;49.2;43.3;;;;;;;2.8;100.0;102680;;;;
2022/03/21 00:02:01;;;;;;;49.2;43.3;;;;;;;2.8;100.0;102680;;;;
2022/03/21 00:03:01;;;;;;;49.2;43.3;;;;;;;2.8;100.0;102680;;;;
2022/03/21 00:04:00;;;;;;;49.2;43.3;;;;;;;2.8;100.0;102680;;;;
2022/03/21 00:05:00;;;;;;;49.2;43.3;;;;;;;2.8;100.0;102680;;;;
2022/03/21 00:06:00;;;;;;;49.2;43.3;;;;;;;2.8;100.0;102680;;;;
2022/03/21 00:07:00;;;;;;;49.2;43.3;;;;;;;2.8;100.0;102680;;;;
2022/03/21 00:08:00;;;;;;;49.2;43.3;;;;;;;2.8;100.0;102680;;;;
2022/03/21 00:09:00;;;;;;;49.2;43.3;;;;;;;2.8;100.0;102690;;;;
2022/03/21 00:10:00;;;;;;;49.2;43.3;;;;;;;2.8;100.0;102690;;;;
2022/03/21 00:11:00;;;;;;;49.2;43.3;;;;;;;2.8;100.0;102690;;;;
2022/03/21 00:12:00;;;;;;;49.2;43.3;;;;;;;2.8;100.0;102690;;;;
2022/03/21 00:13:01;;;;;;;49.2;43.3;;;;;;;2.8;100.0;102690;;;;
2022/03/21 00:14:00;;;;;;;49.2;43.3;;;;;;;2.8;100.0;102690;;;;
2022/03/21 00:15:00;;;;;;;50.1;43.9;;;;;;;2.8;100.0;102690;;;;
2022/03/21 00:16:00;;;;;;;50.1;43.9;;;;;;;2.8;100.0;102690;;;;
2022/03/21 00:17:00;;;;;;;50.1;43.9;;;;;;;2.8;100.0;102680;;;;
2022/03/21 00:18:01;;;;;;;50.1;43.9;;;;;;;2.8;100.0;102680;;;;
2022/03/21 00:19:02;;;;;;;50.1;43.9;;;;;;;2.8;100.0;102690;;;;
2022/03/21 00:20:00;;;;;;;50.1;43.9;;;;;;;2.8;100.0;102690;;;;
2022/03/21 00:21:00;;;;;;;50.1;43.9;;;;;;;2.7;100.0;102690;;;;
2022/03/21 00:22:01;;;;;;;50.1;43.9;;;;;;;2.7;100.0;102690;;;;
2022/03/21 00:23:00;;;;;;;50.1;43.9;;;;;;;2.7;100.0;102690;;;;
2022/03/21 00:24:00;;;;;;;50.1;43.9;;;;;;;2.7;100.0;102690;;;;
2022/03/21 00:25:00;;;;;;;50.1;43.9;;;;;;;2.7;100.0;102700;;;;
2022/03/21 00:26:00;;;;;;;50.1;43.9;;;;;;;2.7;100.0;102700;;;;
2022/03/21 00:27:00;;;;;;;50.1;43.9;;;;;;;2.7;100.0;102700;;;;
2022/03/21 00:28:00;;;;;;;50.1;43.9;;;;;;;2.7;100.0;102700;;;;
2022/03/21 00:29:00;;;;;;;50.1;43.9;;;;;;;2.7;100.0;102700;;;;
2022/03/21 00:30:00;;;;;;;50.1;43.9;;;;;;;2.7;100.0;102700;;;;
2022/03/21 00:31:00;;;;;;;50.1;43.9;;;;;;;2.7;100.0;102700;;;;
2022/03/21 00:32:01;;;;;;;50.1;43.9;;;;;;;2.7;100.0;102700;;;;
2022/03/21 00:33:00;;;;;;;50.1;43.9;;;;;;;2.6;100.0;102700;;;;
2022/03/21 00:34:01;;;;;;;50.1;43.9;;;;;;;2.6;100.0;102700;;;;
2022/03/21 00:35:01;;;;;;;48.4;43.1;;;;;;;2.6;100.0;102700;;;;
2022/03/21 00:36:00;;;;;;;48.4;43.1;;;;;;;2.6;100.0;102700;;;;
2022/03/21 00:37:00;;;;;;;48.4;43.1;;;;;;;2.6;100.0;102700;;;;
2022/03/21 00:38:00;;;;;;;48.4;43.1;;;;;;;2.6;100.0;102700;;;;
2022/03/21 00:39:00;;;;;;;48.4;43.1;;;;;;;2.5;100.0;102700;;;;
2022/03/21 00:40:00;;;;;;;48.4;43.1;;;;;;;2.5;100.0;102700;;;;
2022/03/21 00:41:00;;;;;;;48.4;43.1;;;;;;;2.4;100.0;102710;;;;
2022/03/21 00:42:00;;;;;;;48.4;43.1;;;;;;;2.4;100.0;102710;;;;
2022/03/21 00:43:01;;;;;;;48.4;43.1;;;;;;;2.5;100.0;102710;;;;
2022/03/21 00:44:00;;;;;;;48.4;43.1;;;;;;;2.5;100.0;102710;;;;
2022/03/21 00:45:01;;;;;;;48.4;43.1;;;;;;;2.5;100.0;102710;;;;
2022/03/21 00:46:00;;;;;;;48.4;43.1;;;;;;;2.5;100.0;102710;;;;
2022/03/21 00:47:00;;;;;;;48.4;43.1;;;;;;;2.5;100.0;102720;;;;
2022/03/21 00:48:00;;;;;;;48.4;43.1;;;;;;;2.5;100.0;102720;;;;
2022/03/21 00:49:00;;;;;;;48.4;43.1;;;;;;;2.5;100.0;102710;;;;
2022/03/21 00:50:00;;;;;;;48.4;43.1;;;;;;;2.5;100.0;102710;;;;
2022/03/21 00:51:00;;;;;;;48.4;43.1;;;;;;;2.5;100.0;102720;;;;
2022/03/21 00:52:00;;;;;;;48.4;43.1;;;;;;;2.5;100.0;102720;;;;
2022/03/21 00:53:00;;;;;;;48.4;43.1;;;;;;;2.4;100.0;102710;;;;
2022/03/21 00:54:00;;;;;;;48.4;43.1;;;;;;;2.4;100.0;102710;;;;
2022/03/21 00:55:00;;;;;;;48.5;43.4;;;;;;;2.5;100.0;102710;;;;
2022/03/21 00:56:00;;;;;;;48.5;43.4;;;;;;;2.5;100.0;102710;;;;
2022/03/21 00:57:00;;;;;;;48.5;43.4;;;;;;;2.5;100.0;102720;;;;
2022/03/21 00:58:00;;;;;;;48.5;43.4;;;;;;;2.5;100.0;102720;;;;
2022/03/21 00:59:00;;;;;;;48.5;43.4;;;;;;;2.4;100.0;102710;;;;
2022/03/21 01:00:00;;;;;;;48.5;43.4;;;;;;;2.4;100.0;102710;;;;
2022/03/21 01:01:01;;;;;;;48.5;43.4;;;;;;;2.4;100.0;102720;;;;
2022/03/21 01:02:00;;;;;;;48.5;43.4;;;;;;;2.4;100.0;102720;;;;
2022/03/21 01:03:01;;;;;;;48.5;43.4;;;;;;;2.3;100.0;102720;;;;
2022/03/21 01:04:00;;;;;;;48.5;43.4;;;;;;;2.3;100.0;102720;;;;
2022/03/21 01:05:00;;;;;;;48.5;43.4;;;;;;;2.3;100.0;102720;;;;
2022/03/21 01:06:00;;;;;;;48.5;43.4;;;;;;;2.3;100.0;102720;;;;
2022/03/21 01:07:00;;;;;;;48.5;43.4;;;;;;;2.3;100.0;102720;;;;
2022/03/21 01:08:02;;;;;;;48.5;43.4;;;;;;;2.3;100.0;102720;;;;
2022/03/21 01:09:00;;;;;;;48.5;43.4;;;;;;;2.3;100.0;102730;;;;
2022/03/21 01:10:00;;;;;;;48.5;43.4;;;;;;;2.3;100.0;102730;;;;
2022/03/21 01:11:00;;;;;;;48.5;43.4;;;;;;;2.3;100.0;102730;;;;
2022/03/21 01:12:03;;;;;;;48.5;43.4;;;;;;;2.3;100.0;102730;;;;
2022/03/21 01:13:00;;;;;;;48.5;43.4;;;;;;;2.3;100.0;102730;;;;
2022/03/21 01:14:00;;;;;;;48.5;43.4;;;;;;;2.3;100.0;102730;;;;
2022/03/21 01:15:00;;;;;;;51.8;46.1;;;;;;;2.3;100.0;102740;;;;
2022/03/21 01:16:00;;;;;;;51.8;46.1;;;;;;;2.3;100.0;102740;;;;
2022/03/21 01:17:00;;;;;;;51.8;46.1;;;;;;;2.2;100.0;102730;;;;
2022/03/21 01:18:00;;;;;;;51.8;46.1;;;;;;;2.2;100.0;102730;;;;
2022/03/21 01:19:00;;;;;;;51.8;46.1;;;;;;;2.2;100.0;102730;;;;
2022/03/21 01:20:00;;;;;;;51.8;46.1;;;;;;;2.2;100.0;102730;;;;
2022/03/21 01:21:00;;;;;;;51.8;46.1;;;;;;;2.2;100.0;102730;;;;
2022/03/21 01:22:00;;;;;;;51.8;46.1;;;;;;;2.2;100.0;102730;;;;
2022/03/21 01:23:00;;;;;;;51.8;46.1;;;;;;;2.1;100.0;102730;;;;
2022/03/21 01:24:00;;;;;;;51.8;46.1;;;;;;;2.1;100.0;102730;;;;
2022/03/21 01:25:00;;;;;;;51.8;46.1;;;;;;;2.0;100.0;102730;;;;
2022/03/21 01:26:00;;;;;;;51.8;46.1;;;;;;;2.0;100.0;102730;;;;
2022/03/21 01:27:00;;;;;;;51.8;46.1;;;;;;;2.0;100.0;102740;;;;
2022/03/21 01:28:00;;;;;;;51.8;46.1;;;;;;;2.0;100.0;102740;;;;
2022/03/21 01:29:00;;;;;;;51.8;46.1;;;;;;;2.0;100.0;102740;;;;
2022/03/21 01:30:00;;;;;;;51.8;46.1;;;;;;;2.0;100.0;102740;;;;
2022/03/21 01:31:00;;;;;;;51.8;46.1;;;;;;;2.0;100.0;102730;;;;
2022/03/21 01:32:00;;;;;;;51.8;46.1;;;;;;;2.0;100.0;102730;;;;
2022/03/21 01:33:00;;;;;;;51.8;46.1;;;;;;;2.1;100.0;102740;;;;
2022/03/21 01:34:00;;;;;;;51.8;46.1;;;;;;;2.1;100.0;102740;;;;
2022/03/21 01:35:00;;;;;;;51.0;45.6;;;;;;;2.2;100.0;102740;;;;
2022/03/21 01:36:00;;;;;;;51.0;45.6;;;;;;;2.2;100.0;102740;;;;
2022/03/21 01:37:05;;;;;;;51.0;45.6;;;;;;;2.1;100.0;102740;;;;
2022/03/21 01:38:00;;;;;;;51.0;45.6;;;;;;;2.1;100.0;102740;;;;
2022/03/21 01:39:00;;;;;;;51.0;45.6;;;;;;;2.1;100.0;102740;;;;
2022/03/21 01:40:00;;;;;;;51.0;45.6;;;;;;;2.1;100.0;102740;;;;
2022/03/21 01:41:00;;;;;;;51.0;45.6;;;;;;;2.1;100.0;102740;;;;
2022/03/21 01:42:00;;;;;;;51.0;45.6;;;;;;;2.1;100.0;102740;;;;
2022/03/21 01:43:00;;;;;;;51.0;45.6;;;;;;;2.0;100.0;102740;;;;
2022/03/21 01:44:01;;;;;;;51.0;45.6;;;;;;;2.0;100.0;102740;;;;
2022/03/21 01:45:00;;;;;;;51.0;45.6;;;;;;;2.0;100.0;102740;;;;
2022/03/21 01:46:00;;;;;;;51.0;45.6;;;;;;;2.0;100.0;102740;;;;
2022/03/21 01:47:01;;;;;;;51.0;45.6;;;;;;;1.9;100.0;102740;;;;
2022/03/21 01:48:00;;;;;;;51.0;45.6;;;;;;;1.9;100.0;102740;;;;
2022/03/21 01:49:00;;;;;;;51.0;45.6;;;;;;;1.9;100.0;102740;;;;
2022/03/21 01:50:00;;;;;;;51.0;45.6;;;;;;;1.9;100.0;102740;;;;
2022/03/21 01:51:00;;;;;;;51.0;45.6;;;;;;;1.8;100.0;102740;;;;
2022/03/21 01:52:00;;;;;;;51.0;45.6;;;;;;;1.8;100.0;102740;;;;
2022/03/21 01:56:01;;;;;;;50.3;44.6;;;;;;;1.9;100.0;102740;;;;
2022/03/21 01:57:01;;;;;;;50.3;44.6;;;;;;;1.9;100.0;102740;;;;
2022/03/21 01:58:00;;;;;;;50.3;44.6;;;;;;;1.9;100.0;102740;;;;
2022/03/21 01:59:00;;;;;;;50.3;44.6;;;;;;;1.9;100.0;102740;;;;
2022/03/21 02:00:00;;;;;;;50.3;44.6;;;;;;;1.9;100.0;102740;;;;
2022/03/21 02:01:00;;;;;;;50.3;44.6;;;;;;;1.8;100.0;102740;;;;
2022/03/21 02:02:00;;;;;;;50.3;44.6;;;;;;;1.8;100.0;102740;;;;
2022/03/21 02:03:00;;;;;;;50.3;44.6;;;;;;;1.8;100.0;102740;;;;
2022/03/21 02:04:00;;;;;;;50.3;44.6;;;;;;;1.8;100.0;102740;;;;
2022/03/21 02:05:00;;;;;;;50.3;44.6;;;;;;;1.8;100.0;102740;;;;
2022/03/21 02:06:01;;;;;;;50.3;44.6;;;;;;;1.8;100.0;102740;;;;
2022/03/21 02:07:01;;;;;;;50.3;44.6;;;;;;;1.8;100.0;102740;;;;
2022/03/21 02:08:00;;;;;;;50.3;44.6;;;;;;;1.8;100.0;102740;;;;
2022/03/21 02:09:01;;;;;;;50.3;44.6;;;;;;;1.8;100.0;102740;;;;
2022/03/21 02:10:02;;;;;;;50.3;44.6;;;;;;;1.8;100.0;102740;;;;
2022/03/21 02:11:00;;;;;;;50.3;44.6;;;;;;;1.7;100.0;102740;;;;
2022/03/21 02:12:00;;;;;;;50.3;44.6;;;;;;;1.7;100.0;102740;;;;
2022/03/21 02:13:00;;;;;;;50.3;44.6;;;;;;;1.8;100.0;102750;;;;
2022/03/21 02:14:01;;;;;;;50.3;44.6;;;;;;;1.8;100.0;102750;;;;
2022/03/21 02:15:00;;;;;;;52.5;45.8;;;;;;;1.7;100.0;102750;;;;
2022/03/21 02:16:00;;;;;;;52.5;45.8;;;;;;;1.7;100.0;102750;;;;
2022/03/21 02:17:00;;;;;;;52.5;45.8;;;;;;;1.5;100.0;102740;;;;
2022/03/21 02:18:01;;;;;;;52.5;45.8;;;;;;;1.5;100.0;102740;;;;
2022/03/21 02:19:03;;;;;;;52.5;45.8;;;;;;;1.5;100.0;102750;;;;
2022/03/21 02:20:01;;;;;;;52.5;45.8;;;;;;;1.5;100.0;102750;;;;
2022/03/21 02:21:01;;;;;;;52.5;45.8;;;;;;;1.5;100.0;102750;;;;
2022/03/21 02:22:10;;;;;;;52.5;45.8;;;;;;;1.5;100.0;102750;;;;
2022/03/21 02:23:10;;;;;;;52.5;45.8;;;;;;;1.5;100.0;102750;;;;
2022/03/21 02:24:05;;;;;;;52.5;45.8;;;;;;;1.5;100.0;102750;;;;
2022/03/21 02:25:10;;;;;;;52.5;45.8;;;;;;;1.5;100.0;102740;;;;
2022/03/21 02:26:00;;;;;;;52.5;45.8;;;;;;;1.5;100.0;102740;;;;
2022/03/21 02:27:01;;;;;;;52.5;45.8;;;;;;;1.4;100.0;102740;;;;
2022/03/21 02:28:01;;;;;;;52.5;45.8;;;;;;;1.4;100.0;102740;;;;
2022/03/21 02:29:01;;;;;;;52.5;45.8;;;;;;;1.5;100.0;102740;;;;
2022/03/21 02:30:01;;;;;;;52.5;45.8;;;;;;;1.5;100.0;102740;;;;
2022/03/21 02:31:00;;;;;;;52.5;45.8;;;;;;;1.5;100.0;102740;;;;
2022/03/21 02:32:00;;;;;;;52.5;45.8;;;;;;;1.5;100.0;102740;;;;
2022/03/21 02:33:00;;;;;;;52.5;45.8;;;;;;;1.4;100.0;102740;;;;
2022/03/21 02:34:01;;;;;;;52.5;45.8;;;;;;;1.4;100.0;102740;;;;
2022/03/21 02:35:01;;;;;;;55.6;48.3;;;;;;;1.5;100.0;102740;;;;
2022/03/21 02:36:01;;;;;;;55.6;48.3;;;;;;;1.5;100.0;102740;;;;
2022/03/21 02:37:00;;;;;;;55.6;48.3;;;;;;;1.5;100.0;102740;;;;
2022/03/21 02:38:01;;;;;;;55.6;48.3;;;;;;;1.5;100.0;102740;;;;
2022/03/21 02:39:00;;;;;;;55.6;48.3;;;;;;;1.5;100.0;102740;;;;
2022/03/21 02:40:01;;;;;;;55.6;48.3;;;;;;;1.5;100.0;102740;;;;
2022/03/21 02:41:00;;;;;;;55.6;48.3;;;;;;;1.6;100.0;102750;;;;
2022/03/21 02:42:01;;;;;;;55.6;48.3;;;;;;;1.6;100.0;102750;;;;
2022/03/21 02:43:00;;;;;;;55.6;48.3;;;;;;;1.5;100.0;102740;;;;
2022/03/21 02:44:01;;;;;;;55.6;48.3;;;;;;;1.5;100.0;102740;;;;
2022/03/21 02:45:00;;;;;;;55.6;48.3;;;;;;;1.5;100.0;102750;;;;
2022/03/21 02:46:08;;;;;;;55.6;48.3;;;;;;;1.5;100.0;102750;;;;
2022/03/21 02:47:00;;;;;;;55.6;48.3;;;;;;;1.5;100.0;102750;;;;
2022/03/21 02:48:00;;;;;;;55.6;48.3;;;;;;;1.5;100.0;102750;;;;
2022/03/21 02:49:00;;;;;;;55.6;48.3;;;;;;;1.5;100.0;102750;;;;
2022/03/21 02:50:01;;;;;;;55.6;48.3;;;;;;;1.5;100.0;102750;;;;
2022/03/21 02:51:01;;;;;;;55.6;48.3;;;;;;;1.5;100.0;102740;;;;
2022/03/21 02:52:02;;;;;;;55.6;48.3;;;;;;;1.5;100.0;102740;;;;
2022/03/21 02:53:01;;;;;;;55.6;48.3;;;;;;;1.5;100.0;102750;;;;
2022/03/21 02:54:00;;;;;;;55.6;48.3;;;;;;;1.5;100.0;102750;;;;
2022/03/21 02:55:00;;;;;;;52.4;46.2;;;;;;;1.5;100.0;102740;;;;
2022/03/21 02:56:00;;;;;;;52.4;46.2;;;;;;;1.5;100.0;102740;;;;
2022/03/21 02:57:00;;;;;;;52.4;46.2;;;;;;;1.4;100.0;102750;;;;
2022/03/21 02:58:00;;;;;;;52.4;46.2;;;;;;;1.4;100.0;102750;;;;
2022/03/21 02:59:00;;;;;;;52.4;46.2;;;;;;;1.4;100.0;102750;;;;
2022/03/21 03:00:00;;;;;;;52.4;46.2;;;;;;;1.4;100.0;102750;;;;
2022/03/21 03:01:08;;;;;;;52.4;46.2;;;;;;;1.4;100.0;102750;;;;
2022/03/21 03:02:00;;;;;;;52.4;46.2;;;;;;;1.4;100.0;102750;;;;
2022/03/21 03:03:00;;;;;;;52.4;46.2;;;;;;;1.4;100.0;102740;;;;
2022/03/21 03:04:00;;;;;;;52.4;46.2;;;;;;;1.4;100.0;102740;;;;
2022/03/21 03:05:00;;;;;;;52.4;46.2;;;;;;;1.4;100.0;102750;;;;
2022/03/21 03:06:00;;;;;;;52.4;46.2;;;;;;;1.4;100.0;102750;;;;
2022/03/21 03:07:00;;;;;;;52.4;46.2;;;;;;;1.4;100.0;102750;;;;
2022/03/21 03:08:02;;;;;;;52.4;46.2;;;;;;;1.4;100.0;102750;;;;
2022/03/21 03:09:00;;;;;;;52.4;46.2;;;;;;;1.4;100.0;102740;;;;
2022/03/21 03:10:00;;;;;;;52.4;46.2;;;;;;;1.4;100.0;102740;;;;
2022/03/21 03:11:00;;;;;;;52.4;46.2;;;;;;;1.2;100.0;102740;;;;
2022/03/21 03:12:00;;;;;;;52.4;46.2;;;;;;;1.2;100.0;102740;;;;
2022/03/21 03:13:00;;;;;;;52.4;46.2;;;;;;;1.2;100.0;102750;;;;
2022/03/21 03:14:00;;;;;;;54.5;48.0;;;;;;;1.2;100.0;102750;;;;
2022/03/21 03:15:00;;;;;;;54.5;48.0;;;;;;;1.3;100.0;102740;;;;
2022/03/21 03:16:00;;;;;;;54.5;48.0;;;;;;;1.3;100.0;102740;;;;
2022/03/21 03:17:01;;;;;;;54.5;48.0;;;;;;;1.3;100.0;102750;;;;
2022/03/21 03:18:01;;;;;;;54.5;48.0;;;;;;;1.3;100.0;102750;;;;
2022/03/21 03:19:00;;;;;;;54.5;48.0;;;;;;;1.2;100.0;102740;;;;
2022/03/21 03:20:00;;;;;;;54.5;48.0;;;;;;;1.2;100.0;102740;;;;
2022/03/21 03:21:00;;;;;;;54.5;48.0;;;;;;;1.2;100.0;102740;;;;
2022/03/21 03:22:00;;;;;;;54.5;48.0;;;;;;;1.2;100.0;102740;;;;
2022/03/21 03:23:02;;;;;;;54.5;48.0;;;;;;;1.3;100.0;102740;;;;
2022/03/21 03:24:00;;;;;;;54.5;48.0;;;;;;;1.3;100.0;102740;;;;
2022/03/21 03:25:02;;;;;;;54.5;48.0;;;;;;;1.3;100.0;102740;;;;
2022/03/21 03:26:02;;;;;;;54.5;48.0;;;;;;;1.3;100.0;102740;;;;
2022/03/21 03:27:00;;;;;;;54.5;48.0;;;;;;;1.2;100.0;102750;;;;
2022/03/21 03:28:00;;;;;;;54.5;48.0;;;;;;;1.2;100.0;102750;;;;
2022/03/21 03:29:00;;;;;;;54.5;48.0;;;;;;;1.1;100.0;102750;;;;
2022/03/21 03:30:01;;;;;;;54.5;48.0;;;;;;;1.1;100.0;102750;;;;
2022/03/21 03:31:00;;;;;;;54.5;48.0;;;;;;;1.3;100.0;102740;;;;
2022/03/21 03:32:03;;;;;;;54.5;48.0;;;;;;;1.3;100.0;102740;;;;
2022/03/21 03:33:00;;;;;;;54.5;48.0;;;;;;;1.2;100.0;102740;;;;
2022/03/21 03:34:00;;;;;;;54.5;47.9;;;;;;;1.2;100.0;102740;;;;
2022/03/21 03:35:00;;;;;;;54.5;47.9;;;;;;;1.1;100.0;102740;;;;
2022/03/21 03:36:00;;;;;;;54.5;47.9;;;;;;;1.1;100.0;102740;;;;
2022/03/21 03:37:00;;;;;;;54.5;47.9;;;;;;;1.2;100.0;102750;;;;
2022/03/21 03:38:00;;;;;;;54.5;47.9;;;;;;;1.2;100.0;102750;;;;
2022/03/21 03:39:00;;;;;;;54.5;47.9;;;;;;;1.2;100.0;102750;;;;
2022/03/21 03:40:00;;;;;;;54.5;47.9;;;;;;;1.2;100.0;102750;;;;
2022/03/21 03:41:00;;;;;;;54.5;47.9;;;;;;;1.2;100.0;102750;;;;
2022/03/21 03:42:00;;;;;;;54.5;47.9;;;;;;;1.2;100.0;102750;;;;
2022/03/21 03:43:00;;;;;;;54.5;47.9;;;;;;;1.2;100.0;102750;;;;
2022/03/21 03:44:00;;;;;;;54.5;47.9;;;;;;;1.2;100.0;102750;;;;
2022/03/21 03:45:00;;;;;;;54.5;47.9;;;;;;;1.2;100.0;102750;;;;
2022/03/21 03:46:00;;;;;;;54.5;47.9;;;;;;;1.2;100.0;102750;;;;
2022/03/21 03:47:00;;;;;;;54.5;47.9;;;;;;;1.2;100.0;102750;;;;
2022/03/21 03:48:01;;;;;;;54.5;47.9;;;;;;;1.2;100.0;102750;;;;
2022/03/21 03:49:00;;;;;;;54.5;47.9;;;;;;;1.2;100.0;102750;;;;
2022/03/21 03:50:00;;;;;;;54.5;47.9;;;;;;;1.2;100.0;102750;;;;
2022/03/21 03:51:00;;;;;;;54.5;47.9;;;;;;;1.2;100.0;102750;;;;
2022/03/21 03:52:00;;;;;;;54.5;47.9;;;;;;;1.2;100.0;102750;;;;
2022/03/21 03:53:00;;;;;;;54.5;47.9;;;;;;;1.2;100.0;102750;;;;
2022/03/21 03:54:00;;;;;;;53.4;45.5;;;;;;;1.2;100.0;102750;;;;
2022/03/21 03:55:00;;;;;;;53.4;45.5;;;;;;;1.2;100.0;102750;;;;
2022/03/21 03:56:00;;;;;;;53.4;45.5;;;;;;;1.2;100.0;102750;;;;
2022/03/21 03:57:00;;;;;;;53.4;45.5;;;;;;;1.2;100.0;102760;;;;
2022/03/21 03:58:00;;;;;;;53.4;45.5;;;;;;;1.2;100.0;102760;;;;
2022/03/21 03:59:00;;;;;;;53.4;45.5;;;;;;;1.1;100.0;102760;;;;
2022/03/21 04:00:00;;;;;;;53.4;45.5;;;;;;;1.1;100.0;102760;;;;
2022/03/21 04:01:00;;;;;;;53.4;45.5;;;;;;;1.1;100.0;102760;;;;
2022/03/21 04:02:00;;;;;;;53.4;45.5;;;;;;;1.1;100.0;102760;;;;
2022/03/21 04:04:00;;;;;;;53.4;45.5;;;;;;;1.0;100.0;102760;;;;
2022/03/21 04:05:00;;;;;;;53.4;45.5;;;;;;;1.0;100.0;102760;;;;
2022/03/21 04:06:00;;;;;;;53.4;45.5;;;;;;;1.0;100.0;102760;;;;
2022/03/21 04:07:00;;;;;;;53.4;45.5;;;;;;;1.1;100.0;102760;;;;
2022/03/21 04:08:00;;;;;;;53.4;45.5;;;;;;;1.1;100.0;102760;;;;
2022/03/21 04:09:00;;;;;;;53.4;45.5;;;;;;;1.1;100.0;102760;;;;
2022/03/21 04:10:00;;;;;;;53.4;45.5;;;;;;;1.1;100.0;102760;;;;
2022/03/21 04:11:00;;;;;;;53.4;45.5;;;;;;;1.1;100.0;102760;;;;
2022/03/21 04:12:00;;;;;;;53.4;45.5;;;;;;;1.1;100.0;102760;;;;
2022/03/21 04:13:00;;;;;;;53.4;45.5;;;;;;;1.0;100.0;102770;;;;
2022/03/21 04:14:00;;;;;;;51.7;46.0;;;;;;;1.0;100.0;102770;;;;
2022/03/21 04:15:00;;;;;;;51.7;46.0;;;;;;;1.1;100.0;102760;;;;
2022/03/21 04:16:00;;;;;;;51.7;46.0;;;;;;;1.1;100.0;102760;;;;
2022/03/21 04:17:00;;;;;;;51.7;46.0;;;;;;;1.0;100.0;102760;;;;
2022/03/21 04:18:00;;;;;;;51.7;46.0;;;;;;;1.0;100.0;102760;;;;
2022/03/21 04:19:00;;;;;;;51.7;46.0;;;;;;;1.0;100.0;102760;;;;
2022/03/21 04:20:00;;;;;;;51.7;46.0;;;;;;;1.0;100.0;102760;;;;
2022/03/21 04:21:00;;;;;;;51.7;46.0;;;;;;;0.9;100.0;102760;;;;
2022/03/21 04:22:00;;;;;;;51.7;46.0;;;;;;;0.9;100.0;102760;;;;
2022/03/21 04:23:01;;;;;;;51.7;46.0;;;;;;;0.9;100.0;102760;;;;
2022/03/21 04:24:00;;;;;;;51.7;46.0;;;;;;;0.9;100.0;102760;;;;
2022/03/21 04:25:06;;;;;;;51.7;46.0;;;;;;;0.9;100.0;102760;;;;
2022/03/21 04:26:00;;;;;;;51.7;46.0;;;;;;;0.9;100.0;102760;;;;
2022/03/21 04:27:00;;;;;;;51.7;46.0;;;;;;;0.9;100.0;102760;;;;
2022/03/21 04:28:06;;;;;;;51.7;46.0;;;;;;;0.9;100.0;102760;;;;
2022/03/21 04:29:04;;;;;;;51.7;46.0;;;;;;;0.9;100.0;102760;;;;
2022/03/21 04:30:00;;;;;;;51.7;46.0;;;;;;;0.9;100.0;102760;;;;
2022/03/21 04:31:00;;;;;;;51.7;46.0;;;;;;;1.0;100.0;102760;;;;
2022/03/21 04:32:01;;;;;;;51.7;46.0;;;;;;;1.0;100.0;102760;;;;
2022/03/21 04:33:00;;;;;;;51.7;46.0;;;;;;;0.9;100.0;102760;;;;
2022/03/21 04:34:00;;;;;;;50.4;42.8;;;;;;;0.9;100.0;102760;;;;
2022/03/21 04:35:00;;;;;;;50.4;42.8;;;;;;;1.0;100.0;102760;;;;
2022/03/21 04:36:00;;;;;;;50.4;42.8;;;;;;;1.0;100.0;102760;;;;
2022/03/21 04:37:00;;;;;;;50.4;42.8;;;;;;;1.0;100.0;102760;;;;
2022/03/21 04:38:00;;;;;;;50.4;42.8;;;;;;;1.0;100.0;102760;;;;
2022/03/21 04:39:00;;;;;;;50.4;42.8;;;;;;;0.9;100.0;102760;;;;
2022/03/21 04:40:00;;;;;;;50.4;42.8;;;;;;;0.9;100.0;102760;;;;
2022/03/21 04:41:00;;;;;;;50.4;42.8;;;;;;;0.9;100.0;102770;;;;
2022/03/21 04:42:00;;;;;;;50.4;42.8;;;;;;;0.9;100.0;102770;;;;
2022/03/21 04:43:00;;;;;;;50.4;42.8;;;;;;;0.9;100.0;102770;;;;
2022/03/21 04:44:00;;;;;;;50.4;42.8;;;;;;;0.9;100.0;102770;;;;
2022/03/21 04:45:00;;;;;;;50.4;42.8;;;;;;;0.9;100.0;102770;;;;
2022/03/21 04:46:00;;;;;;;50.4;42.8;;;;;;;0.9;100.0;102770;;;;
2022/03/21 04:47:00;;;;;;;50.4;42.8;;;;;;;0.9;100.0;102770;;;;
2022/03/21 04:48:00;;;;;;;50.4;42.8;;;;;;;0.9;100.0;102770;;;;
2022/03/21 04:49:00;;;;;;;50.4;42.8;;;;;;;0.8;100.0;102770;;;;
2022/03/21 04:50:00;;;;;;;50.4;42.8;;;;;;;0.8;100.0;102770;;;;
2022/03/21 04:51:00;;;;;;;50.4;42.8;;;;;;;0.8;100.0;102770;;;;
2022/03/21 04:52:00;;;;;;;50.4;42.8;;;;;;;0.8;100.0;102770;;;;
2022/03/21 04:53:00;;;;;;;50.4;42.8;;;;;;;0.9;100.0;102770;;;;
2022/03/21 04:54:00;;;;;;;49.7;42.4;;;;;;;0.9;100.0;102770;;;;
2022/03/21 04:55:00;;;;;;;49.7;42.4;;;;;;;0.9;100.0;102770;;;;
2022/03/21 04:56:00;;;;;;;49.7;42.4;;;;;;;0.9;100.0;102770;;;;
2022/03/21 04:57:00;;;;;;;49.7;42.4;;;;;;;0.9;100.0;102770;;;;
2022/03/21 04:58:00;;;;;;;49.7;42.4;;;;;;;0.9;100.0;102770;;;;
2022/03/21 04:59:00;;;;;;;49.7;42.4;;;;;;;0.9;100.0;102770;;;;
2022/03/21 05:00:00;;;;;;;49.7;42.4;;;;;;;0.9;100.0;102770;;;;
2022/03/21 05:01:00;;;;;;;49.7;42.4;;;;;;;0.8;100.0;102770;;;;
2022/03/21 05:02:00;;;;;;;49.7;42.4;;;;;;;0.8;100.0;102770;;;;
2022/03/21 05:03:01;;;;;;;49.7;42.4;;;;;;;0.8;100.0;102770;;;;
2022/03/21 05:04:00;;;;;;;49.7;42.4;;;;;;;0.8;100.0;102770;;;;
2022/03/21 05:05:00;;;;;;;49.7;42.4;;;;;;;0.8;100.0;102770;;;;
2022/03/21 05:06:00;;;;;;;49.7;42.4;;;;;;;0.8;100.0;102770;;;;
2022/03/21 05:07:00;;;;;;;49.7;42.4;;;;;;;0.8;100.0;102780;;;;
2022/03/21 05:08:01;;;;;;;49.7;42.4;;;;;;;0.8;100.0;102780;;;;
2022/03/21 05:09:03;;;;;;;49.7;42.4;;;;;;;0.8;100.0;102780;;;;
2022/03/21 05:10:00;;;;;;;49.7;42.4;;;;;;;0.8;100.0;102780;;;;
2022/03/21 05:11:00;;;;;;;49.7;42.4;;;;;;;0.7;100.0;102780;;;;
2022/03/21 05:12:00;;;;;;;49.7;42.4;;;;;;;0.7;100.0;102780;;;;
2022/03/21 05:13:00;;;;;;;49.7;42.4;;;;;;;0.8;100.0;102780;;;;
2022/03/21 05:14:01;;;;;;;52.4;43.1;;;;;;;0.8;100.0;102780;;;;
2022/03/21 05:15:00;;;;;;;52.4;43.1;;;;;;;0.8;100.0;102780;;;;
2022/03/21 05:16:00;;;;;;;52.4;43.1;;;;;;;0.8;100.0;102780;;;;
2022/03/21 05:17:02;;;;;;;52.4;43.1;;;;;;;0.8;100.0;102780;;;;
2022/03/21 05:18:00;;;;;;;52.4;43.1;;;;;;;0.8;100.0;102780;;;;
2022/03/21 05:19:00;;;;;;;52.4;43.1;;;;;;;0.7;100.0;102780;;;;
2022/03/21 05:20:00;;;;;;;52.4;43.1;;;;;;;0.7;100.0;102780;;;;
2022/03/21 05:21:00;;;;;;;52.4;43.1;;;;;;;0.7;100.0;102790;;;;
2022/03/21 05:22:00;;;;;;;52.4;43.1;;;;;;;0.7;100.0;102790;;;;
2022/03/21 05:31:01;;;;;;;52.4;43.1;;;;;;;0.7;100.0;102790;;;;
2022/03/21 05:32:00;;;;;;;52.4;43.1;;;;;;;0.7;100.0;102790;;;;
2022/03/21 05:36:00;;;;;;;52.5;42.0;;;;;;;0.8;100.0;102790;;;;
2022/03/21 05:37:00;;;;;;;52.5;42.0;;;;;;;0.7;100.0;102790;;;;
2022/03/21 05:38:00;;;;;;;52.5;42.0;;;;;;;0.7;100.0;102790;;;;
2022/03/21 05:39:00;;;;;;;52.5;42.0;;;;;;;0.7;100.0;102790;;;;
2022/03/21 05:41:00;;;;;;;52.5;42.0;;;;;;;0.7;100.0;102790;;;;
2022/03/21 05:42:00;;;;;;;52.5;42.0;;;;;;;0.7;100.0;102790;;;;
2022/03/21 05:43:01;;;;;;;52.5;42.0;;;;;;;0.7;100.0;102790;;;;
2022/03/21 05:44:00;;;;;;;52.5;42.0;;;;;;;0.7;100.0;102790;;;;
2022/03/21 05:45:00;;;;;;;52.5;42.0;;;;;;;0.7;100.0;102790;;;;
2022/03/21 05:46:01;;;;;;;52.5;42.0;;;;;;;0.7;100.0;102790;;;;
2022/03/21 05:47:00;;;;;;;52.5;42.0;;;;;;;0.7;100.0;102790;;;;
2022/03/21 05:49:00;;;;;;;52.5;42.0;;;;;;;0.7;100.0;102790;;;;
2022/03/21 05:50:00;;;;;;;52.5;42.0;;;;;;;0.7;100.0;102790;;;;
2022/03/21 05:51:00;;;;;;;52.5;42.0;;;;;;;0.6;100.0;102780;;;;
2022/03/21 05:52:00;;;;;;;52.5;42.0;;;;;;;0.6;100.0;102780;;;;
2022/03/21 05:53:00;;;;;;;52.5;42.0;;;;;;;0.7;100.0;102780;;;;
2022/03/21 05:54:01;;;;;;;49.2;39.8;;;;;;;0.7;100.0;102780;;;;
2022/03/21 05:55:00;;;;;;;49.2;39.8;;;;;;;0.7;100.0;102790;;;;
2022/03/21 05:56:00;;;;;;;49.2;39.8;;;;;;;0.7;100.0;102790;;;;
2022/03/21 05:57:00;;;;;;;49.2;39.8;;;;;;;0.7;100.0;102790;;;;
2022/03/21 05:58:00;;;;;;;49.2;39.8;;;;;;;0.7;100.0;102790;;;;
2022/03/21 06:00:20;;;;;;;49.2;39.8;;;;;;;0.7;100.0;102780;;;;
2022/03/21 06:01:00;;;;;;;49.2;39.8;;;;;;;0.7;100.0;102790;;;;
2022/03/21 06:02:00;;;;;;;49.2;39.8;;;;;;;0.7;100.0;102790;;;;
2022/03/21 06:03:00;;;;;;;49.2;39.8;;;;;;;0.7;100.0;102790;;;;
2022/03/21 06:04:00;;;;;;;49.2;39.8;;;;;;;0.7;100.0;102790;;;;
2022/03/21 06:05:01;;;;;;;49.2;39.8;;;;;;;0.8;100.0;102790;;;;
2022/03/21 06:06:00;;;;;;;49.2;39.8;;;;;;;0.8;100.0;102790;;;;
2022/03/21 06:07:05;;;;;;;49.2;39.8;;;;;;;0.8;100.0;102790;;;;
2022/03/21 06:08:00;;;;;;;49.2;39.8;;;;;;;0.8;100.0;102790;;;;
2022/03/21 06:09:00;;;;;;;49.2;39.8;;;;;;;0.8;100.0;102800;;;;
2022/03/21 06:10:00;;;;;;;49.2;39.8;;;;;;;0.8;100.0;102800;;;;
2022/03/21 06:11:03;;;;;;;49.2;39.8;;;;;;;0.8;100.0;102790;;;;
2022/03/21 06:12:00;;;;;;;49.2;39.8;;;;;;;0.8;100.0;102790;;;;
2022/03/21 06:13:05;;;;;;;49.2;39.8;;;;;;;0.8;100.0;102800;;;;
2022/03/21 06:14:00;;;;;;;52.4;41.0;;;;;;;0.8;100.0;102800;;;;
2022/03/21 06:15:00;;;;;;;52.4;41.0;;;;;;;0.9;100.0;102800;;;;
2022/03/21 06:16:01;;;;;;;52.4;41.0;;;;;;;0.9;100.0;102800;;;;
2022/03/21 06:17:01;;;;;;;52.4;41.0;;;;;;;0.9;100.0;102800;;;;
2022/03/21 06:18:01;;;;;;;52.4;41.0;;;;;;;0.9;100.0;102800;;;;
2022/03/21 06:19:00;;;;;;;52.4;41.0;;;;;;;0.9;100.0;102800;;;;
2022/03/21 06:20:00;;;;;;;52.4;41.0;;;;;;;0.9;100.0;102800;;;;
2022/03/21 06:21:00;;;;;;;52.4;41.0;;;;;;;0.9;100.0;102800;;;;
2022/03/21 06:22:00;;;;;;;52.4;41.0;;;;;;;0.9;100.0;102800;;;;
2022/03/21 06:23:01;;;;;;;52.4;41.0;;;;;;;0.9;100.0;102800;;;;
2022/03/21 06:24:02;;;;;;;52.4;41.0;;;;;;;0.9;100.0;102800;;;;
2022/03/21 06:25:00;;;;;;;52.4;41.0;;;;;;;0.9;100.0;102800;;;;
2022/03/21 06:26:00;;;;;;;52.4;41.0;;;;;;;0.9;100.0;102800;;;;
2022/03/21 06:27:00;;;;;;;52.4;41.0;;;;;;;0.9;100.0;102800;;;;
2022/03/21 06:28:01;;;;;;;52.4;41.0;;;;;;;0.9;100.0;102800;;;;
2022/03/21 06:29:00;;;;;;;52.4;41.0;;;;;;;1.0;100.0;102800;;;;
2022/03/21 06:30:00;;;;;;;52.4;41.0;;;;;;;1.0;100.0;102800;;;;
2022/03/21 06:31:00;;;;;;;52.4;41.0;;;;;;;1.0;100.0;102800;;;;
2022/03/21 06:32:00;;;;;;;52.4;41.0;;;;;;;1.0;100.0;102800;;;;
2022/03/21 06:33:00;;;;;;;44.8;37.8;;;;;;;1.0;100.0;102810;;;;
2022/03/21 06:34:00;;;;;;;44.8;37.8;;;;;;;1.0;100.0;102810;;;;